createdAt,value
2018-06-13T05:02:16.907Z,18.50
2018-06-13T05:07:20.242Z,16.87
2018-06-13T05:12:23.632Z,16.27
2018-06-13T05:17:26.971Z,16.13
2018-06-13T05:22:31.088Z,17.63
2018-06-13T05:27:34.426Z,19.03
2018-06-13T05:32:38.523Z,17.57
2018-06-13T05:37:41.869Z,16.70
2018-06-13T05:42:45.980Z,15.63
2018-06-13T05:47:49.322Z,13.77
2018-06-13T05:52:53.425Z,12.00
2018-06-13T05:57:56.761Z,11.27
2018-06-13T06:03:00.875Z,13.10
2018-06-13T06:08:04.983Z,12.27
2018-06-13T06:13:08.326Z,11.50
2018-06-13T06:18:12.455Z,12.30
2018-06-13T06:23:16.147Z,12.77
2018-06-13T06:28:19.478Z,12.80
2018-06-13T06:33:22.818Z,12.77
2018-06-13T06:38:26.155Z,12.00
2018-06-13T06:43:29.486Z,11.07
2018-06-13T06:48:32.822Z,10.47
2018-06-13T06:53:36.164Z,10.40
2018-06-13T06:58:40.273Z,9.57
2018-06-13T07:03:43.612Z,11.43
2018-06-13T07:08:46.946Z,10.17
2018-06-13T07:13:50.289Z,11.57
2018-06-13T07:18:53.666Z,11.67
2018-06-13T07:24:17.348Z,11.77
2018-06-13T07:29:20.990Z,12.23
2018-06-13T07:34:24.351Z,13.97
2018-06-13T07:39:28.451Z,14.87
2018-06-13T07:44:31.798Z,15.57
2018-06-13T07:49:35.895Z,14.80
2018-06-13T07:54:39.234Z,15.70
2018-06-13T07:59:42.582Z,16.73
2018-06-13T08:04:45.917Z,17.17
2018-06-13T08:09:49.259Z,17.20
2018-06-13T08:14:52.599Z,17.90
2018-06-13T08:19:56.699Z,18.90
2018-06-13T08:25:00.053Z,18.50
2018-06-13T08:30:03.412Z,19.93
2018-06-13T08:35:06.750Z,18.57
2018-06-13T08:40:10.091Z,20.50
2018-06-13T08:45:14.194Z,20.00
2018-06-13T08:50:17.755Z,20.20
2018-06-13T08:55:21.128Z,19.83
2018-06-13T09:00:24.512Z,19.70
2018-06-13T09:05:27.855Z,19.47
2018-06-13T09:10:31.195Z,19.50
2018-06-13T09:15:35.309Z,19.13
2018-06-13T09:20:38.649Z,19.77
2018-06-13T09:25:42.753Z,19.00
2018-06-13T09:30:46.087Z,17.67
2018-06-13T09:35:50.194Z,17.50
2018-06-13T09:40:53.523Z,17.40
2018-06-13T09:46:03.398Z,17.90
2018-06-13T09:51:00.981Z,18.47
2018-06-13T09:56:04.327Z,19.27
2018-06-13T10:01:07.670Z,18.23
2018-06-13T10:06:11.037Z,19.13
2018-06-13T10:11:14.442Z,16.03
2018-06-13T10:16:18.518Z,15.47
2018-06-13T10:21:21.876Z,16.37
2018-06-13T10:26:25.250Z,14.40
2018-06-13T10:31:28.613Z,16.30
2018-06-13T10:36:31.954Z,16.20
2018-06-13T10:41:35.294Z,17.93
2018-06-13T10:46:38.631Z,18.67
2018-06-13T10:51:42.755Z,17.90
2018-06-13T10:56:46.873Z,18.17
2018-06-13T11:01:50.266Z,19.07
2018-06-13T11:06:53.625Z,16.47
2018-06-13T11:11:57.187Z,16.53
2018-06-13T11:17:00.562Z,16.03
2018-06-13T11:22:03.927Z,16.23
2018-06-13T11:27:07.423Z,15.13
2018-06-13T11:32:10.758Z,14.70
2018-06-13T11:37:14.106Z,14.83
2018-06-13T11:42:18.235Z,13.50
2018-06-13T11:47:22.534Z,14.47
2018-06-13T11:52:26.355Z,15.20
2018-06-13T11:57:29.683Z,14.33
2018-06-13T12:02:33.059Z,14.23
2018-06-13T12:07:36.402Z,14.37
2018-06-13T12:12:39.734Z,13.30
2018-06-13T12:17:43.067Z,14.03
2018-06-13T12:22:47.201Z,12.47
2018-06-13T12:27:50.554Z,13.13
2018-06-13T12:32:54.115Z,12.63
2018-06-13T12:37:58.219Z,12.97
2018-06-13T12:43:01.822Z,13.67
2018-06-13T12:48:05.163Z,13.57
2018-06-13T12:53:08.511Z,13.77
2018-06-13T12:58:12.034Z,14.03
2018-06-13T13:03:15.374Z,13.87
2018-06-13T13:08:18.706Z,14.07
2018-06-13T13:13:22.043Z,17.00
2018-06-13T13:18:26.160Z,17.23
2018-06-13T13:23:29.508Z,16.17
2018-06-13T13:28:32.843Z,13.53
2018-06-13T13:33:36.175Z,12.53
2018-06-13T13:38:39.518Z,12.17
2018-06-13T13:43:42.862Z,13.60
2018-06-13T13:48:46.207Z,12.13
2018-06-13T13:53:49.610Z,10.90
2018-06-13T13:58:53.667Z,9.60
2018-06-13T14:03:56.997Z,10.43
2018-06-13T14:09:00.330Z,10.97
2018-06-13T14:14:04.441Z,10.60
2018-06-13T14:19:07.782Z,10.57
2018-06-13T14:24:11.122Z,9.90
2018-06-13T14:29:14.455Z,10.80
2018-06-13T14:34:17.803Z,8.83
2018-06-13T14:39:21.929Z,9.27
2018-06-13T14:44:26.027Z,8.47
2018-06-13T14:49:32.934Z,8.53
2018-06-13T14:54:36.288Z,8.17
2018-06-13T14:59:40.378Z,9.07
2018-06-13T15:04:43.715Z,8.30
2018-06-13T15:09:47.810Z,8.93
2018-06-13T15:14:51.148Z,8.77
2018-06-13T15:19:54.494Z,8.50
2018-06-13T15:24:57.839Z,8.13
2018-06-13T15:30:01.198Z,9.73
2018-06-13T15:35:05.299Z,9.13
2018-06-13T15:40:08.641Z,9.33
2018-06-13T15:45:12.742Z,10.33
2018-06-13T15:50:34.815Z,12.00
2018-06-13T15:55:38.175Z,10.07
2018-06-13T16:00:41.518Z,12.13
2018-06-13T16:05:44.871Z,10.07
2018-06-13T16:10:49.028Z,10.10
2018-06-13T16:15:52.349Z,11.00
2018-06-13T16:20:56.497Z,10.37
2018-06-13T16:25:59.831Z,9.67
2018-06-13T16:31:03.195Z,11.80
2018-06-13T16:36:06.523Z,10.23
2018-06-13T16:41:09.864Z,11.73
2018-06-13T16:46:13.210Z,11.27
2018-06-13T16:56:59.131Z,12.83
2018-06-13T17:02:02.477Z,9.37
2018-06-13T17:07:06.578Z,9.27
2018-06-13T17:12:09.924Z,9.73
2018-06-13T17:17:13.259Z,9.30
2018-06-13T17:22:17.370Z,8.23
2018-06-13T17:27:21.478Z,9.67
2018-06-13T17:32:24.847Z,8.80
2018-06-13T17:37:28.184Z,10.83
2018-06-13T17:42:31.528Z,9.23
2018-06-13T17:47:35.622Z,9.13
2018-06-13T17:52:38.967Z,10.40
2018-06-13T17:57:43.136Z,10.23
2018-06-13T18:02:46.471Z,10.17
2018-06-13T18:13:06.639Z,9.47
2018-06-13T18:18:10.023Z,9.33
2018-06-13T18:23:14.422Z,8.33
2018-06-13T18:28:18.249Z,7.70
2018-06-13T18:33:21.848Z,6.77
2018-06-13T18:38:25.591Z,5.17
2018-06-13T18:43:30.131Z,5.57
2018-06-13T18:48:33.737Z,5.43
2018-06-13T18:53:37.388Z,4.73
2018-06-13T18:58:41.700Z,5.17
2018-06-13T19:03:45.546Z,5.00
2018-06-13T19:08:49.247Z,4.93
2018-06-13T19:13:52.874Z,5.07
2018-06-13T19:18:56.551Z,5.37
2018-06-13T19:24:00.887Z,5.13
2018-06-13T19:29:05.259Z,5.07
2018-06-13T19:34:08.884Z,6.30
2018-06-13T19:39:12.710Z,5.67
2018-06-13T19:44:16.402Z,5.33
2018-06-13T19:49:26.499Z,5.33
2018-06-13T20:00:03.227Z,7.53
2018-06-13T20:10:38.604Z,7.82
2018-06-13T20:21:12.631Z,7.30
2018-06-13T20:26:21.427Z,5.90
2018-06-13T20:31:24.821Z,5.67
2018-06-13T20:36:28.123Z,5.43
2018-06-13T20:41:31.474Z,5.27
2018-06-13T20:46:35.019Z,5.83
2018-06-13T20:51:38.367Z,5.50
2018-06-13T20:56:42.470Z,6.20
2018-06-13T21:01:45.797Z,5.07
2018-06-13T21:06:49.127Z,5.80
2018-06-13T21:11:52.457Z,6.20
2018-06-13T21:16:56.582Z,6.00
2018-06-13T21:21:59.922Z,5.60
2018-06-13T21:27:03.493Z,6.00
2018-06-13T21:32:06.836Z,5.47
2018-06-13T21:37:10.178Z,4.70
2018-06-13T21:42:13.707Z,6.53
2018-06-13T21:47:17.042Z,5.20
2018-06-13T21:52:20.388Z,6.50
2018-06-13T21:57:23.723Z,6.40
2018-06-13T22:02:27.058Z,5.33
2018-06-13T22:07:30.384Z,5.90
2018-06-13T22:12:33.710Z,5.97
2018-06-13T22:17:37.037Z,5.90
2018-06-13T22:22:41.138Z,6.93
2018-06-13T22:27:44.467Z,6.67
